createdAt,value
2018-12-02T00:00:46.626Z,79.62
2018-12-02T00:03:14.959Z,78.40
2018-12-02T00:05:43.290Z,78.48
2018-12-02T00:08:11.558Z,79.53
2018-12-02T00:10:39.838Z,78.51
2018-12-02T00:13:08.174Z,78.78
2018-12-02T00:15:38.400Z,78.95
2018-12-02T00:18:09.256Z,78.63
2018-12-02T00:20:37.473Z,78.80
2018-12-02T00:23:07.189Z,78.43
2018-12-02T00:25:35.798Z,78.29
2018-12-02T00:28:04.586Z,78.21
2018-12-02T00:30:32.819Z,77.81
2018-12-02T00:33:01.103Z,77.81
2018-12-02T00:35:29.300Z,77.81
2018-12-02T00:38:00.195Z,77.97
2018-12-02T00:40:28.451Z,77.37
2018-12-02T00:42:57.978Z,76.84
2018-12-02T00:45:32.828Z,76.81
2018-12-02T00:48:03.237Z,76.60
2018-12-02T00:50:31.574Z,77.22
2018-12-02T00:53:00.592Z,76.72
2018-12-02T00:55:30.956Z,76.27
2018-12-02T00:57:59.209Z,76.88
2018-12-02T01:00:27.538Z,76.56
2018-12-02T01:02:55.798Z,75.80
2018-12-02T01:05:24.124Z,76.19
2018-12-02T01:07:52.296Z,76.44
2018-12-02T01:10:22.029Z,76.47
2018-12-02T01:12:52.765Z,76.32
2018-12-02T01:15:22.504Z,75.87
2018-12-02T01:17:50.697Z,75.73
2018-12-02T01:20:20.281Z,75.55
2018-12-02T01:22:48.506Z,76.08
2018-12-02T01:25:16.840Z,75.73
2018-12-02T01:27:45.972Z,76.00
2018-12-02T01:30:16.565Z,75.42
2018-12-02T01:32:44.810Z,75.16
2018-12-02T01:35:14.405Z,75.74
2018-12-02T01:37:42.694Z,76.09
2018-12-02T01:40:17.529Z,75.22
2018-12-02T01:42:45.794Z,75.87
2018-12-02T01:45:18.329Z,76.00
2018-12-02T01:47:46.530Z,75.50
2018-12-02T01:50:17.764Z,75.63
2018-12-02T01:52:50.382Z,75.88
2018-12-02T01:55:18.672Z,75.43
2018-12-02T01:57:46.934Z,75.25
2018-12-02T02:00:22.474Z,75.56
2018-12-02T02:02:51.344Z,75.60
2018-12-02T02:05:20.863Z,76.14
2018-12-02T02:07:49.149Z,75.26
2018-12-02T02:10:28.768Z,75.43
2018-12-02T02:12:57.014Z,75.50
2018-12-02T02:15:25.330Z,74.66
2018-12-02T02:17:53.543Z,75.65
2018-12-02T02:20:23.855Z,74.87
2018-12-02T02:22:52.988Z,75.26
2018-12-02T02:25:23.264Z,74.98
2018-12-02T02:27:58.794Z,74.49
2018-12-02T02:30:28.497Z,75.03
2018-12-02T02:32:56.787Z,74.22
2018-12-02T02:35:24.983Z,74.06
2018-12-02T02:37:55.887Z,74.60
2018-12-02T02:40:27.568Z,74.08
2018-12-02T02:42:55.795Z,74.38
2018-12-02T02:45:24.114Z,74.27
2018-12-02T02:47:52.275Z,74.43
2018-12-02T02:50:24.571Z,73.68
2018-12-02T02:53:00.965Z,73.96
2018-12-02T02:55:29.179Z,73.41
2018-12-02T02:57:57.483Z,73.28
2018-12-02T03:00:27.425Z,73.61
2018-12-02T03:02:55.622Z,73.14
2018-12-02T03:05:23.835Z,73.16
2018-12-02T03:07:52.098Z,73.61
2018-12-02T03:10:21.090Z,73.24
2018-12-02T03:12:51.651Z,72.88
2018-12-02T03:15:20.799Z,72.76
2018-12-02T03:17:49.114Z,73.14
2018-12-02T03:20:22.319Z,73.55
2018-12-02T03:22:55.210Z,72.97
2018-12-02T03:25:25.562Z,73.48
2018-12-02T03:27:54.102Z,72.94
2018-12-02T03:30:23.410Z,72.95
2018-12-02T03:32:52.023Z,72.74
2018-12-02T03:35:23.321Z,73.53
2018-12-02T03:37:52.237Z,73.00
2018-12-02T03:40:24.538Z,72.34
2018-12-02T03:42:53.193Z,72.47
2018-12-02T03:45:24.078Z,72.45
2018-12-02T03:47:54.304Z,72.56
2018-12-02T03:50:23.266Z,72.09
2018-12-02T03:52:51.477Z,72.34
2018-12-02T03:55:19.844Z,72.46
2018-12-02T03:57:48.156Z,72.21
2018-12-02T04:00:21.519Z,71.80
2018-12-02T04:02:50.619Z,72.53
2018-12-02T04:05:20.150Z,72.49
2018-12-02T04:07:48.629Z,72.06
2018-12-02T04:10:17.778Z,72.59
2018-12-02T04:12:47.311Z,72.88
2018-12-02T04:15:18.731Z,72.86
2018-12-02T04:17:47.147Z,72.62
2018-12-02T04:20:17.368Z,72.87
2018-12-02T04:22:46.984Z,71.97
2018-12-02T04:25:18.628Z,72.68
2018-12-02T04:27:46.825Z,72.14
2018-12-02T04:30:16.341Z,72.36
2018-12-02T04:32:45.124Z,72.15
2018-12-02T04:35:18.876Z,72.07
2018-12-02T04:37:47.226Z,71.98
2018-12-02T04:40:15.582Z,71.54
2018-12-02T04:42:43.860Z,71.49
2018-12-02T04:45:15.235Z,71.64
2018-12-02T04:47:43.637Z,71.94
2018-12-02T04:50:17.015Z,71.73
2018-12-02T04:52:45.255Z,71.18
2018-12-02T04:55:13.579Z,71.96
2018-12-02T04:57:41.839Z,72.05
2018-12-02T05:00:14.457Z,71.65
2018-12-02T05:02:43.656Z,71.64
2018-12-02T05:05:15.293Z,70.94
2018-12-02T05:07:43.620Z,71.35
2018-12-02T05:10:17.840Z,72.05
2018-12-02T05:12:46.292Z,71.06
2018-12-02T05:15:15.871Z,71.30
2018-12-02T05:17:44.156Z,71.35
2018-12-02T05:20:15.618Z,71.44
2018-12-02T05:22:43.876Z,70.59
2018-12-02T05:25:17.435Z,71.34
2018-12-02T05:27:42.892Z,71.32
2018-12-02T05:30:14.985Z,71.25
2018-12-02T05:32:43.840Z,71.04
2018-12-02T05:35:13.226Z,71.18
2018-12-02T05:37:41.564Z,71.31
2018-12-02T05:40:20.371Z,71.33
2018-12-02T05:42:48.605Z,71.54
2018-12-02T05:45:17.931Z,70.96
2018-12-02T05:47:46.187Z,70.87
2018-12-02T05:50:17.970Z,70.94
2018-12-02T05:52:48.801Z,71.49
2018-12-02T05:55:19.077Z,71.13
2018-12-02T05:57:47.341Z,71.71
2018-12-02T06:00:17.353Z,72.42
2018-12-02T06:02:45.557Z,71.69
2018-12-02T06:05:13.764Z,71.85
2018-12-02T06:07:42.037Z,72.69
2018-12-02T06:10:11.938Z,72.45
2018-12-02T06:12:40.147Z,72.27
2018-12-02T06:15:12.111Z,71.81
2018-12-02T06:17:40.452Z,72.62
2018-12-02T06:20:19.891Z,72.54
2018-12-02T06:22:48.862Z,72.34
2018-12-02T06:25:17.097Z,72.20
2018-12-02T06:27:45.545Z,72.46
2018-12-02T06:30:19.974Z,72.38
2018-12-02T06:32:49.951Z,72.41
2018-12-02T06:35:18.226Z,73.01
2018-12-02T06:37:46.420Z,72.38
2018-12-02T06:40:19.229Z,73.04
2018-12-02T06:42:47.678Z,72.47
2018-12-02T06:45:16.602Z,73.24
2018-12-02T06:47:44.860Z,73.30
2018-12-02T06:50:16.554Z,72.67
2018-12-02T06:52:45.540Z,72.53
2018-12-02T06:55:40.202Z,73.24
2018-12-02T06:58:33.386Z,73.48
2018-12-02T07:01:23.407Z,73.31
2018-12-02T07:04:08.741Z,73.46
2018-12-02T07:06:36.979Z,73.63
2018-12-02T07:09:07.529Z,73.13
2018-12-02T07:11:36.528Z,73.74
2018-12-02T07:14:04.805Z,73.66
2018-12-02T07:16:32.986Z,73.23
2018-12-02T07:19:15.740Z,73.80
2018-12-02T07:21:53.638Z,73.51
2018-12-02T07:24:28.743Z,73.81
2018-12-02T07:27:00.222Z,74.16
2018-12-02T07:29:28.600Z,73.60
2018-12-02T07:31:56.835Z,74.38
2018-12-02T07:34:25.022Z,74.44
2018-12-02T07:36:54.696Z,74.57
2018-12-02T07:40:43.342Z,73.83
2018-12-02T07:43:12.582Z,74.14
2018-12-02T07:45:40.699Z,74.16
2018-12-02T07:48:08.983Z,75.14
2018-12-02T07:50:37.093Z,74.42
2018-12-02T07:53:05.597Z,74.49
2018-12-02T07:55:33.747Z,74.91
2018-12-02T07:58:01.946Z,74.35
2018-12-02T08:00:30.145Z,74.64
2018-12-02T08:02:58.598Z,74.75
2018-12-02T08:05:26.879Z,74.79
2018-12-02T08:07:55.077Z,74.53
2018-12-02T08:10:23.261Z,74.04
2018-12-02T08:12:51.677Z,74.13
2018-12-02T08:15:20.317Z,74.20
2018-12-02T08:17:48.522Z,74.33
2018-12-02T08:20:17.725Z,74.60
2018-12-02T08:22:51.377Z,73.90
2018-12-02T08:25:18.165Z,75.04
2018-12-02T08:27:46.830Z,74.17
2018-12-02T08:30:20.642Z,75.38
2018-12-02T08:32:48.856Z,74.99
2018-12-02T08:35:18.753Z,75.05
2018-12-02T08:37:49.077Z,74.87
2018-12-02T08:40:17.454Z,74.27
2018-12-02T08:42:45.684Z,74.85
2018-12-02T08:45:18.070Z,74.55
2018-12-02T08:47:46.408Z,74.70
2018-12-02T08:50:17.936Z,74.09
2018-12-02T08:52:47.669Z,74.46
2018-12-02T08:55:19.241Z,74.70
2018-12-02T08:57:49.701Z,74.02
2018-12-02T09:00:20.367Z,74.87
2018-12-02T09:03:00.365Z,74.66
2018-12-02T09:05:28.633Z,74.52
2018-12-02T09:07:59.571Z,74.36
2018-12-02T09:10:29.202Z,73.91
2018-12-02T09:13:02.174Z,73.75
2018-12-02T09:15:30.464Z,73.76
2018-12-02T09:17:58.761Z,74.45
2018-12-02T09:20:28.874Z,74.53
2018-12-02T09:22:57.089Z,74.25
2018-12-02T09:25:25.400Z,74.25
2018-12-02T09:27:53.695Z,74.11
2018-12-02T09:30:27.519Z,75.08
2018-12-02T09:32:55.767Z,74.44
2018-12-02T09:35:24.038Z,74.99
2018-12-02T09:37:52.319Z,74.87
2018-12-02T09:40:20.611Z,75.36
2018-12-02T09:42:51.712Z,75.88
2018-12-02T09:45:26.334Z,76.32
2018-12-02T09:47:59.846Z,76.01
2018-12-02T09:50:28.279Z,75.87
2018-12-02T09:52:56.556Z,76.61
2018-12-02T09:55:33.467Z,77.67
2018-12-02T09:58:01.815Z,78.73
2018-12-02T10:00:34.161Z,79.50
2018-12-02T10:02:58.443Z,79.89
2018-12-02T10:05:27.081Z,81.18
2018-12-02T10:07:55.305Z,81.61
2018-12-02T10:10:23.633Z,81.28
2018-12-02T10:13:02.436Z,80.45
2018-12-02T10:15:30.715Z,79.44
2018-12-02T10:17:59.084Z,79.64
2018-12-02T10:20:27.383Z,78.62
2018-12-02T10:22:55.680Z,78.26
2018-12-02T10:25:23.951Z,77.94
2018-12-02T10:27:52.213Z,77.81
2018-12-02T10:30:24.615Z,78.66
2018-12-02T10:32:54.447Z,80.19
2018-12-02T10:35:24.189Z,80.43
2018-12-02T10:37:53.360Z,80.22
2018-12-02T10:40:24.237Z,80.43
2018-12-02T10:42:52.611Z,81.74
2018-12-02T10:45:27.257Z,81.57
2018-12-02T10:47:58.373Z,81.71
2018-12-02T10:50:32.709Z,82.01
2018-12-02T10:53:03.247Z,82.65
2018-12-02T10:56:07.197Z,82.06
2018-12-02T10:58:36.135Z,82.79
2018-12-02T11:01:12.283Z,84.50
2018-12-02T11:03:40.611Z,84.34
2018-12-02T11:06:08.923Z,84.05
2018-12-02T11:08:37.311Z,84.38
2018-12-02T11:11:06.230Z,84.78
2018-12-02T11:13:34.541Z,86.25
2018-12-02T11:16:03.093Z,87.19
2018-12-02T11:18:31.483Z,87.52
2018-12-02T11:20:59.851Z,87.46
2018-12-02T11:23:28.080Z,87.86
2018-12-02T11:25:56.330Z,87.69
2018-12-02T11:28:24.604Z,88.04
2018-12-02T11:30:52.840Z,88.03
2018-12-02T11:33:21.319Z,88.20
2018-12-02T11:35:49.676Z,87.32
2018-12-02T11:38:17.974Z,87.83
2018-12-02T11:40:46.263Z,87.84
2018-12-02T11:43:14.637Z,87.50
2018-12-02T11:45:42.976Z,88.19
2018-12-02T11:48:11.252Z,87.45
2018-12-02T11:50:39.631Z,86.34
2018-12-02T11:53:08.084Z,87.29
2018-12-02T11:55:36.440Z,87.20
2018-12-02T11:58:05.621Z,87.59
2018-12-02T12:00:36.314Z,86.00
2018-12-02T12:03:04.746Z,86.58
2018-12-02T12:05:33.024Z,86.28
2018-12-02T12:08:02.722Z,86.35
2018-12-02T12:10:31.037Z,86.12
2018-12-02T12:13:01.133Z,85.40
2018-12-02T12:15:30.742Z,85.02
2018-12-02T12:18:00.861Z,84.47
2018-12-02T12:20:36.889Z,83.72
2018-12-02T12:23:06.171Z,83.98
2018-12-02T12:25:34.804Z,83.59
2018-12-02T12:28:03.886Z,84.64
2018-12-02T12:30:33.109Z,83.17
2018-12-02T12:33:01.374Z,83.54
2018-12-02T12:35:29.676Z,83.33
2018-12-02T12:37:58.020Z,82.88
2018-12-02T12:40:31.856Z,81.75
2018-12-02T12:43:36.787Z,82.45
2018-12-02T12:46:05.747Z,81.10
2018-12-02T12:48:34.049Z,81.86
2018-12-02T12:51:03.745Z,81.53
2018-12-02T12:53:33.984Z,83.34
2018-12-02T12:56:05.397Z,83.24
2018-12-02T12:58:33.639Z,84.66
2018-12-02T13:01:02.021Z,85.74
2018-12-02T13:03:30.324Z,85.95
2018-12-02T13:06:02.153Z,86.10
2018-12-02T13:08:31.865Z,85.99
2018-12-02T13:11:00.111Z,87.11
2018-12-02T13:13:28.415Z,87.93
2018-12-02T13:15:56.756Z,87.57
2018-12-02T13:18:25.116Z,87.22
2018-12-02T13:20:54.883Z,86.79
2018-12-02T13:23:23.269Z,87.09
2018-12-02T13:25:52.222Z,87.06
2018-12-02T13:28:20.552Z,86.97
2018-12-02T13:30:49.064Z,87.02
2018-12-02T13:33:17.474Z,86.72
2018-12-02T13:35:45.819Z,86.46
2018-12-02T13:38:14.164Z,86.15
2018-12-02T13:40:43.462Z,87.29
2018-12-02T13:43:18.586Z,86.89
2018-12-02T13:45:52.414Z,86.14
2018-12-02T13:48:20.668Z,87.14
2018-12-02T13:50:49.019Z,86.47
2018-12-02T13:53:17.378Z,85.50
2018-12-02T13:55:45.736Z,85.90
2018-12-02T13:58:14.143Z,86.37
2018-12-02T14:00:42.992Z,85.91
2018-12-02T14:03:13.860Z,85.39
2018-12-02T14:05:44.516Z,85.76
2018-12-02T14:08:12.838Z,86.61
2018-12-02T14:10:41.250Z,85.78
2018-12-02T14:13:22.468Z,86.33
2018-12-02T14:18:36.091Z,85.65
2018-12-02T14:21:05.199Z,86.76
2018-12-02T14:23:33.714Z,87.29
2018-12-02T14:26:06.718Z,86.97
2018-12-02T14:28:55.149Z,87.51
2018-12-02T14:31:23.719Z,88.08
2018-12-02T14:33:52.282Z,88.76
2018-12-02T14:36:20.647Z,88.45
2018-12-02T14:38:48.999Z,88.44
2018-12-02T14:41:17.213Z,88.55
2018-12-02T14:43:45.474Z,88.89
2018-12-02T14:46:13.719Z,88.88
2018-12-02T14:48:41.961Z,89.21
2018-12-02T14:51:10.112Z,89.85
2018-12-02T14:53:38.343Z,89.40
2018-12-02T14:56:07.171Z,90.21
2018-12-02T14:58:35.513Z,90.53
2018-12-02T15:01:03.754Z,89.78
2018-12-02T15:03:32.020Z,90.42
2018-12-02T15:06:00.313Z,90.83
2018-12-02T15:08:28.612Z,91.07
2018-12-02T15:10:56.964Z,90.40
2018-12-02T15:13:25.251Z,89.94
2018-12-02T15:15:53.616Z,90.73
2018-12-02T15:18:21.934Z,89.67
2018-12-02T15:20:50.175Z,89.58
2018-12-02T15:23:18.527Z,90.35
2018-12-02T15:25:47.102Z,90.04
2018-12-02T15:28:15.386Z,90.70
2018-12-02T15:30:43.812Z,90.92
2018-12-02T15:33:12.293Z,91.43
2018-12-02T15:35:40.645Z,91.48
2018-12-02T15:38:08.911Z,91.67
2018-12-02T15:40:37.199Z,91.52
2018-12-02T15:43:06.057Z,91.36
2018-12-02T15:45:34.363Z,91.20
2018-12-02T15:48:02.665Z,91.41
2018-12-02T15:50:31.101Z,91.03
2018-12-02T15:52:59.960Z,90.49
2018-12-02T15:55:30.426Z,91.74
2018-12-02T15:58:00.639Z,91.36
2018-12-02T16:00:35.479Z,91.83
2018-12-02T16:03:04.079Z,91.51
2018-12-02T16:05:32.527Z,91.97
2018-12-02T16:08:01.503Z,91.35
2018-12-02T16:10:29.800Z,91.77
2018-12-02T16:12:58.402Z,91.30
2018-12-02T16:15:30.159Z,91.23
2018-12-02T16:17:58.534Z,91.33
2018-12-02T16:20:37.540Z,91.28
2018-12-02T16:23:06.866Z,91.53
2018-12-02T16:25:35.246Z,92.46
2018-12-02T16:28:03.624Z,91.37
2018-12-02T16:30:31.978Z,91.32
2018-12-02T16:33:00.380Z,91.31
2018-12-02T16:35:28.707Z,91.99
2018-12-02T16:37:56.987Z,91.58
2018-12-02T16:40:26.018Z,91.60
2018-12-02T16:42:57.125Z,91.50
2018-12-02T16:45:25.449Z,91.82
2018-12-02T16:48:00.708Z,92.44
2018-12-02T16:50:30.917Z,92.16
2018-12-02T16:53:02.450Z,91.68
2018-12-02T16:55:33.362Z,91.95
2018-12-02T16:59:40.060Z,91.90
2018-12-02T17:02:09.750Z,92.25
2018-12-02T17:04:38.307Z,91.91
2018-12-02T17:07:06.679Z,91.16
2018-12-02T17:09:34.996Z,91.98
2018-12-02T17:12:03.296Z,91.25
2018-12-02T17:14:31.609Z,91.50
2018-12-02T17:16:59.889Z,91.32
2018-12-02T17:19:28.207Z,91.33
2018-12-02T17:21:56.515Z,91.49
2018-12-02T17:24:24.815Z,91.26
2018-12-02T17:26:53.053Z,91.31
2018-12-02T17:29:21.671Z,90.82
2018-12-02T17:32:07.161Z,90.51
2018-12-02T17:34:35.459Z,90.79
2018-12-02T17:37:03.795Z,90.83
2018-12-02T17:39:34.401Z,91.26
2018-12-02T17:42:08.661Z,90.95
2018-12-02T17:44:36.901Z,90.61
2018-12-02T17:47:05.505Z,90.43
2018-12-02T17:49:34.796Z,89.32
2018-12-02T17:52:03.023Z,89.78
2018-12-02T17:54:31.340Z,90.24
2018-12-02T17:56:59.631Z,90.27
2018-12-02T17:59:27.859Z,90.38
2018-12-02T18:01:56.184Z,89.83
2018-12-02T18:04:24.378Z,90.51
2018-12-02T18:06:52.626Z,89.56
2018-12-02T18:09:21.067Z,89.65
2018-12-02T18:11:49.340Z,90.12
2018-12-02T18:14:17.568Z,89.86
2018-12-02T18:16:50.111Z,90.15
2018-12-02T18:19:14.060Z,89.85
2018-12-02T18:21:42.350Z,91.09
2018-12-02T18:24:10.562Z,90.64
2018-12-02T18:26:38.845Z,91.13
2018-12-02T18:29:07.026Z,91.23
2018-12-02T18:31:35.277Z,90.40
2018-12-02T18:34:03.556Z,90.45
2018-12-02T18:36:34.239Z,90.16
2018-12-02T18:39:02.744Z,90.91
2018-12-02T18:41:37.878Z,90.29
2018-12-02T18:44:09.272Z,90.24
2018-12-02T18:46:37.565Z,90.42
2018-12-02T18:49:06.139Z,90.33
2018-12-02T18:51:34.411Z,90.13
2018-12-02T18:54:02.759Z,90.10
2018-12-02T18:56:31.001Z,89.45
2018-12-02T18:58:59.214Z,89.89
2018-12-02T19:01:27.395Z,90.10
2018-12-02T19:03:55.672Z,90.12
2018-12-02T19:06:28.223Z,90.46
2018-12-02T19:08:52.342Z,89.93
2018-12-02T19:11:21.600Z,89.37
2018-12-02T19:13:49.111Z,89.75
2018-12-02T19:16:17.648Z,90.02
2018-12-02T19:18:48.018Z,89.72
2018-12-02T19:21:24.413Z,89.11
2018-12-02T19:23:54.385Z,88.54
2018-12-02T19:26:22.621Z,89.31
2018-12-02T19:28:51.463Z,89.21
2018-12-02T19:31:19.792Z,88.74
2018-12-02T19:33:48.953Z,88.79
2018-12-02T19:36:23.479Z,89.12
2018-12-02T19:38:51.336Z,89.21
2018-12-02T19:41:19.525Z,89.36
2018-12-02T19:43:47.789Z,89.39
2018-12-02T19:46:16.159Z,89.01
2018-12-02T19:48:44.423Z,89.08
2018-12-02T19:51:12.674Z,89.06
2018-12-02T19:53:40.874Z,89.68
2018-12-02T19:56:09.122Z,89.16
2018-12-02T19:58:37.431Z,89.19
2018-12-02T20:01:05.907Z,89.39
2018-12-02T20:03:38.157Z,88.67
2018-12-02T20:06:06.406Z,89.01
2018-12-02T20:08:34.682Z,89.04
2018-12-02T20:11:03.001Z,88.80
2018-12-02T20:13:31.221Z,89.01
2018-12-02T20:16:05.630Z,88.13
2018-12-02T20:18:33.870Z,88.52
2018-12-02T20:21:02.251Z,88.46
2018-12-02T20:23:36.146Z,88.74
2018-12-02T20:26:04.496Z,89.86
2018-12-02T20:28:39.055Z,89.76
2018-12-02T20:31:13.464Z,90.48
2018-12-02T20:33:41.726Z,90.46
2018-12-02T20:36:10.030Z,90.77
2018-12-02T20:38:38.382Z,91.68
2018-12-02T20:41:06.918Z,92.29
2018-12-02T20:43:35.552Z,92.22
2018-12-02T20:46:03.863Z,92.59
2018-12-02T20:48:32.172Z,93.55
2018-12-02T20:51:00.351Z,93.47
2018-12-02T20:53:28.662Z,93.21
2018-12-02T20:55:57.061Z,93.31
2018-12-02T20:58:26.649Z,93.22
2018-12-02T21:00:54.914Z,93.25
2018-12-02T21:06:29.358Z,92.75
2018-12-02T21:08:58.284Z,91.36
2018-12-02T21:11:26.556Z,91.77
2018-12-02T21:16:55.791Z,90.30
2018-12-02T21:19:24.028Z,90.85
2018-12-02T21:21:52.250Z,90.14
2018-12-02T21:24:20.470Z,89.48
2018-12-02T21:26:48.742Z,89.22
2018-12-02T21:29:16.964Z,89.97
2018-12-02T21:31:45.258Z,90.10
2018-12-02T21:34:13.486Z,89.58
2018-12-02T21:36:41.788Z,89.21
2018-12-02T21:39:10.520Z,89.80
2018-12-02T21:41:38.792Z,90.06
2018-12-02T21:44:07.027Z,90.26
2018-12-02T21:46:35.323Z,90.99
2018-12-02T21:49:03.675Z,92.15
2018-12-02T21:51:31.886Z,92.46
2018-12-02T21:54:00.117Z,92.19
2018-12-02T21:56:28.387Z,92.40
2018-12-02T21:58:56.587Z,92.86
2018-12-02T22:01:24.829Z,93.18
2018-12-02T22:03:53.045Z,93.48
2018-12-02T22:06:21.355Z,92.91
2018-12-02T22:08:49.691Z,93.48
2018-12-02T22:11:17.967Z,94.23
2018-12-02T22:13:46.546Z,93.96
2018-12-02T22:16:14.829Z,93.05
2018-12-02T22:18:43.107Z,92.59
2018-12-02T22:21:11.325Z,91.93
2018-12-02T22:23:39.565Z,91.22
2018-12-02T22:26:07.897Z,90.76
2018-12-02T22:28:36.135Z,91.15
2018-12-02T22:31:04.769Z,91.18
2018-12-02T22:33:33.015Z,90.21
2018-12-02T22:36:01.185Z,90.75
2018-12-02T22:38:29.380Z,90.76
2018-12-02T22:40:57.562Z,90.84
2018-12-02T22:43:25.780Z,90.28
2018-12-02T22:45:54.070Z,90.61
2018-12-02T22:48:22.261Z,90.40
2018-12-02T22:50:50.493Z,90.67
2018-12-02T22:53:18.717Z,90.63
2018-12-02T22:55:46.972Z,89.52
2018-12-02T22:58:15.272Z,90.28
2018-12-02T23:00:50.219Z,90.71
2018-12-02T23:03:18.455Z,90.62
2018-12-02T23:05:47.441Z,90.55
2018-12-02T23:08:15.703Z,90.63
2018-12-02T23:10:44.055Z,89.25
2018-12-02T23:13:12.279Z,89.95
2018-12-02T23:15:41.565Z,89.06
2018-12-02T23:18:11.670Z,89.12
2018-12-02T23:20:40.162Z,89.42
2018-12-02T23:23:08.413Z,89.17
2018-12-02T23:25:36.713Z,89.22
2018-12-02T23:28:05.366Z,88.66
2018-12-02T23:30:33.774Z,88.65
2018-12-02T23:33:02.179Z,87.97
2018-12-02T23:35:30.699Z,88.66
2018-12-02T23:37:58.991Z,88.41
2018-12-02T23:40:27.186Z,87.46
2018-12-02T23:42:55.553Z,88.11
2018-12-02T23:45:23.781Z,87.29
2018-12-02T23:47:52.099Z,87.94
2018-12-02T23:50:22.447Z,88.25
2018-12-02T23:52:51.443Z,88.96
2018-12-02T23:55:20.802Z,88.62
2018-12-02T23:57:49.120Z,89.07
